createdAt,value
2022-09-24T00:01:56.555Z,62.75
2022-09-24T00:04:26.070Z,62.87
2022-09-24T00:06:55.565Z,62.99
2022-09-24T00:09:22.359Z,62.57
2022-09-24T00:11:50.326Z,62.43
2022-09-24T00:14:17.368Z,62.42
2022-09-24T00:16:45.228Z,62.59
2022-09-24T00:19:13.566Z,62.69
2022-09-24T00:21:41.499Z,62.74
2022-09-24T00:24:12.481Z,62.78
2022-09-24T00:26:38.986Z,62.69
2022-09-24T00:29:07.125Z,62.97
2022-09-24T00:31:33.901Z,62.95
2022-09-24T00:34:00.671Z,62.80
2022-09-24T00:36:27.828Z,62.95
2022-09-24T00:38:57.483Z,63.18
2022-09-24T00:41:30.557Z,63.31
2022-09-24T00:43:57.812Z,63.16
2022-09-24T00:46:41.237Z,63.69
2022-09-24T00:49:13.754Z,63.53
2022-09-24T00:51:42.876Z,63.33
2022-09-24T00:54:21.161Z,63.74
2022-09-24T00:56:52.403Z,63.52
2022-09-24T00:59:23.741Z,63.84
2022-09-24T01:01:52.584Z,63.61
2022-09-24T01:04:21.150Z,63.64
2022-09-24T01:06:51.984Z,63.78
2022-09-24T01:09:22.590Z,63.57
2022-09-24T01:11:53.734Z,63.76
2022-09-24T01:14:20.174Z,63.25
2022-09-24T01:16:52.314Z,63.53
2022-09-24T01:19:49.107Z,63.48
2022-09-24T01:22:40.500Z,63.44
2022-09-24T01:25:28.556Z,63.46
2022-09-24T01:28:10.039Z,63.43
2022-09-24T01:30:40.229Z,63.12
2022-09-24T01:33:16.090Z,63.12
2022-09-24T01:35:51.795Z,63.18
2022-09-24T01:38:29.046Z,63.28
2022-09-24T01:40:59.489Z,62.91
2022-09-24T01:43:28.032Z,62.80
2022-09-24T01:46:00.736Z,63.13
2022-09-24T01:48:28.685Z,62.56
2022-09-24T01:51:02.681Z,62.99
2022-09-24T01:53:40.304Z,63.01
2022-09-24T01:56:33.896Z,63.00
2022-09-24T01:59:12.870Z,63.01
2022-09-24T02:02:27.410Z,63.31
2022-09-24T02:05:05.347Z,63.31
2022-09-24T02:07:37.810Z,63.25
2022-09-24T02:10:04.782Z,62.87
2022-09-24T02:12:37.133Z,63.36
2022-09-24T02:15:45.046Z,63.71
2022-09-24T02:18:16.673Z,63.53
2022-09-24T02:20:44.550Z,63.30
2022-09-24T02:23:11.712Z,63.23
2022-09-24T02:25:43.854Z,63.53
2022-09-24T02:28:10.594Z,63.12
2022-09-24T02:30:57.791Z,63.77
2022-09-24T02:33:27.043Z,63.31
2022-09-24T02:35:53.685Z,62.97
2022-09-24T02:38:20.280Z,63.06
2022-09-24T02:40:48.362Z,63.07
2022-09-24T02:43:14.784Z,63.36
2022-09-24T02:45:41.339Z,62.91
2022-09-24T02:48:07.989Z,62.90
2022-09-24T02:50:34.551Z,63.19
2022-09-24T02:53:01.376Z,63.29
2022-09-24T02:55:28.106Z,63.64
2022-09-24T02:57:54.654Z,63.86
2022-09-24T03:00:21.153Z,64.00
2022-09-24T03:02:47.960Z,64.19
2022-09-24T03:05:14.928Z,64.13
2022-09-24T03:07:41.427Z,64.10
2022-09-24T03:10:08.482Z,63.98
2022-09-24T03:12:35.070Z,64.02
2022-09-24T03:15:01.601Z,64.12
2022-09-24T03:17:28.153Z,63.99
2022-09-24T03:19:54.713Z,64.01
2022-09-24T03:22:21.235Z,64.00
2022-09-24T03:24:47.942Z,64.02
2022-09-24T03:27:14.417Z,63.97
2022-09-24T03:29:40.977Z,64.09
2022-09-24T03:32:07.517Z,64.15
2022-09-24T03:34:34.049Z,64.10
2022-09-24T03:37:00.597Z,64.29
2022-09-24T03:39:27.130Z,64.44
2022-09-24T03:41:53.564Z,64.46
2022-09-24T03:44:20.120Z,64.39
2022-09-24T03:46:46.630Z,64.47
2022-09-24T03:49:13.127Z,64.52
2022-09-24T03:51:39.694Z,64.46
2022-09-24T03:54:06.192Z,64.51
2022-09-24T03:56:32.774Z,64.56
2022-09-24T03:58:59.373Z,64.54
2022-09-24T04:01:25.941Z,64.62
2022-09-24T04:03:53.244Z,64.41
2022-09-24T04:06:25.560Z,64.64
2022-09-24T04:08:52.433Z,64.48
2022-09-24T04:11:19.147Z,64.62
2022-09-24T04:13:45.636Z,64.69
2022-09-24T04:16:12.204Z,64.58
2022-09-24T04:18:39.503Z,64.42
2022-09-24T04:21:06.832Z,64.47
2022-09-24T04:23:33.352Z,64.40
2022-09-24T04:26:00.191Z,64.40
2022-09-24T04:28:26.683Z,64.42
2022-09-24T04:30:53.185Z,64.47
2022-09-24T04:33:19.781Z,64.33
2022-09-24T04:35:46.536Z,64.36
2022-09-24T04:38:13.552Z,64.43
2022-09-24T04:40:40.177Z,64.52
2022-09-24T04:43:07.153Z,64.57
2022-09-24T04:45:33.965Z,64.82
2022-09-24T04:48:00.860Z,64.85
2022-09-24T04:50:29.310Z,64.98
2022-09-24T04:52:56.581Z,64.97
2022-09-24T04:55:23.930Z,64.92
2022-09-24T04:57:50.491Z,64.91
2022-09-24T05:00:19.664Z,64.88
2022-09-24T05:02:46.292Z,64.94
2022-09-24T05:05:13.511Z,64.92
2022-09-24T05:07:42.026Z,65.18
2022-09-24T05:10:09.131Z,65.05
2022-09-24T05:12:35.604Z,65.03
2022-09-24T05:15:03.924Z,64.89
2022-09-24T05:17:30.292Z,65.10
2022-09-24T05:19:56.853Z,64.84
2022-09-24T05:22:24.432Z,64.76
2022-09-24T05:24:51.005Z,64.77
2022-09-24T05:27:17.588Z,64.80
2022-09-24T05:29:44.118Z,64.79
2022-09-24T05:32:13.545Z,64.92
2022-09-24T05:34:40.153Z,64.97
2022-09-24T05:37:07.238Z,64.96
2022-09-24T05:39:34.446Z,65.00
2022-09-24T05:42:01.568Z,64.95
2022-09-24T05:44:28.038Z,65.08
2022-09-24T05:46:54.561Z,65.11
2022-09-24T05:49:21.109Z,65.11
2022-09-24T05:51:51.439Z,65.16
2022-09-24T05:54:19.149Z,65.25
2022-09-24T05:56:46.232Z,65.25
2022-09-24T05:59:13.290Z,65.22
2022-09-24T06:01:40.100Z,65.16
2022-09-24T06:04:09.000Z,65.07
2022-09-24T06:06:36.114Z,64.82
2022-09-24T06:09:03.565Z,64.92
2022-09-24T06:11:36.359Z,64.96
2022-09-24T06:14:06.503Z,65.16
2022-09-24T06:16:33.995Z,65.22
2022-09-24T06:19:01.089Z,65.20
2022-09-24T06:21:28.090Z,65.05
2022-09-24T06:23:54.573Z,64.94
2022-09-24T06:26:21.150Z,64.71
2022-09-24T06:28:47.725Z,64.90
2022-09-24T06:31:14.365Z,65.04
2022-09-24T06:33:40.975Z,65.12
2022-09-24T06:36:07.794Z,65.26
2022-09-24T06:38:34.417Z,65.56
2022-09-24T06:41:02.862Z,65.46
2022-09-24T06:43:30.347Z,65.32
2022-09-24T06:45:58.117Z,65.47
2022-09-24T06:48:25.167Z,65.50
2022-09-24T06:50:52.073Z,65.47
2022-09-24T06:53:18.901Z,65.37
2022-09-24T06:55:47.041Z,65.59
2022-09-24T06:58:16.597Z,65.34
2022-09-24T07:00:49.887Z,65.44
2022-09-24T07:03:16.541Z,65.44
2022-09-24T07:05:43.898Z,65.33
2022-09-24T07:08:11.180Z,65.05
2022-09-24T07:10:37.699Z,65.21
2022-09-24T07:13:04.272Z,65.18
2022-09-24T07:15:30.864Z,65.13
2022-09-24T07:17:57.762Z,64.98
2022-09-24T07:20:25.713Z,64.80
2022-09-24T07:22:52.281Z,64.83
2022-09-24T07:25:18.829Z,64.74
2022-09-24T07:27:45.390Z,64.93
2022-09-24T07:30:12.834Z,64.92
2022-09-24T07:32:39.382Z,64.71
2022-09-24T07:35:06.388Z,64.67
2022-09-24T07:37:33.260Z,64.59
2022-09-24T07:40:00.174Z,64.56
2022-09-24T07:42:26.678Z,64.65
2022-09-24T07:44:53.292Z,64.23
2022-09-24T07:47:19.972Z,64.29
2022-09-24T07:49:46.568Z,64.24
2022-09-24T07:52:13.138Z,64.26
2022-09-24T07:54:39.834Z,64.39
2022-09-24T07:57:11.201Z,63.67
2022-09-24T07:59:37.923Z,64.35
2022-09-24T08:02:13.871Z,64.04
2022-09-24T08:04:40.623Z,64.38
2022-09-24T08:07:07.251Z,64.25
2022-09-24T08:09:33.879Z,64.34
2022-09-24T08:12:00.648Z,64.22
2022-09-24T08:14:27.157Z,64.00
2022-09-24T08:16:53.632Z,63.70
2022-09-24T08:19:20.291Z,63.17
2022-09-24T08:21:46.815Z,62.94
2022-09-24T08:24:13.415Z,62.82
2022-09-24T08:26:40.096Z,62.66
2022-09-24T08:29:06.735Z,62.53
2022-09-24T08:31:33.276Z,61.92
2022-09-24T08:33:59.925Z,61.97
2022-09-24T08:36:26.652Z,61.51
2022-09-24T08:38:54.274Z,61.72
2022-09-24T08:41:56.597Z,61.11
2022-09-24T08:44:30.429Z,60.60
2022-09-24T08:47:01.915Z,60.26
2022-09-24T08:49:41.421Z,59.58
2022-09-24T08:52:30.784Z,59.88
2022-09-24T08:55:00.814Z,60.08
2022-09-24T08:57:28.340Z,59.95
2022-09-24T08:59:55.031Z,59.94
2022-09-24T09:02:27.371Z,59.56
2022-09-24T09:05:02.628Z,59.07
2022-09-24T09:07:52.747Z,59.84
2022-09-24T09:10:24.396Z,60.08
2022-09-24T09:12:56.919Z,60.32
2022-09-24T09:15:23.506Z,60.89
2022-09-24T09:18:12.866Z,59.61
2022-09-24T09:20:42.787Z,60.83
2022-09-24T09:23:37.089Z,60.13
2022-09-24T09:26:03.711Z,60.71
2022-09-24T09:28:30.325Z,61.10
2022-09-24T09:30:56.835Z,61.39
2022-09-24T09:33:45.157Z,60.30
2022-09-24T09:36:20.907Z,60.47
2022-09-24T09:39:16.191Z,60.49
2022-09-24T09:42:03.755Z,60.42
2022-09-24T09:44:37.348Z,61.25
2022-09-24T09:47:26.578Z,60.47
2022-09-24T09:49:57.714Z,60.75
2022-09-24T09:52:28.563Z,59.65
2022-09-24T09:54:55.133Z,60.99
2022-09-24T09:57:23.919Z,60.50
2022-09-24T09:59:53.222Z,61.19
2022-09-24T10:02:31.416Z,59.97
2022-09-24T10:05:00.962Z,60.74
2022-09-24T10:07:28.092Z,60.19
2022-09-24T10:10:00.433Z,59.04
2022-09-24T10:12:27.401Z,60.09
2022-09-24T10:15:15.012Z,58.23
2022-09-24T10:17:42.768Z,59.96
2022-09-24T10:20:17.571Z,57.43
2022-09-24T10:22:51.331Z,58.16
2022-09-24T10:25:23.036Z,57.26
2022-09-24T10:27:49.820Z,57.94
2022-09-24T10:30:17.175Z,57.58
2022-09-24T10:32:44.234Z,57.83
2022-09-24T10:35:27.956Z,56.97
2022-09-24T10:37:56.963Z,57.76
2022-09-24T10:40:43.868Z,57.54
2022-09-24T10:43:17.402Z,57.38
2022-09-24T10:45:44.006Z,57.62
2022-09-24T10:48:24.742Z,56.89
2022-09-24T10:51:21.514Z,57.18
2022-09-24T10:54:06.154Z,57.12
2022-09-24T10:56:46.157Z,55.87
2022-09-24T10:59:34.788Z,56.10
2022-09-24T11:02:13.331Z,57.03
2022-09-24T11:05:02.530Z,56.68
2022-09-24T11:07:44.067Z,56.31
2022-09-24T11:10:19.513Z,57.64
2022-09-24T11:12:52.351Z,57.57
2022-09-24T11:15:32.455Z,56.16
2022-09-24T11:18:20.857Z,56.29
2022-09-24T11:21:32.248Z,55.17
2022-09-24T11:24:08.024Z,55.88
2022-09-24T11:27:05.914Z,55.42
2022-09-24T11:30:02.082Z,55.65
2022-09-24T11:33:09.511Z,55.69
2022-09-24T11:35:56.867Z,56.21
2022-09-24T11:38:32.373Z,56.34
2022-09-24T11:41:11.648Z,55.77
2022-09-24T11:43:59.262Z,55.38
2022-09-24T11:46:43.491Z,56.54
2022-09-24T11:49:34.666Z,56.04
2022-09-24T11:52:27.508Z,55.96
2022-09-24T11:55:05.931Z,57.06
2022-09-24T11:57:38.438Z,57.18
2022-09-24T12:00:12.333Z,56.81
2022-09-24T12:02:52.523Z,57.16
2022-09-24T12:05:33.970Z,57.31
2022-09-24T12:08:23.007Z,56.94
2022-09-24T12:10:55.089Z,57.45
2022-09-24T12:13:30.867Z,57.55
2022-09-24T12:16:02.755Z,57.42
2022-09-24T12:18:38.564Z,57.10
2022-09-24T12:21:15.490Z,57.20
2022-09-24T12:23:46.156Z,57.66
2022-09-24T12:26:16.224Z,57.89
2022-09-24T12:29:17.861Z,57.58
2022-09-24T12:32:06.446Z,57.95
2022-09-24T12:35:07.717Z,56.76
2022-09-24T12:37:40.822Z,57.45
2022-09-24T12:40:19.199Z,56.78
2022-09-24T12:42:54.380Z,56.40
2022-09-24T12:45:22.981Z,56.90
2022-09-24T12:47:54.088Z,55.63
2022-09-24T12:50:27.175Z,55.45
2022-09-24T12:52:54.214Z,56.24
2022-09-24T12:55:27.052Z,55.29
2022-09-24T12:58:03.260Z,56.16
2022-09-24T13:00:44.467Z,56.25
2022-09-24T13:03:39.069Z,56.53
2022-09-24T13:06:22.965Z,56.51
2022-09-24T13:08:49.602Z,56.62
2022-09-24T13:11:27.423Z,56.59
2022-09-24T13:14:20.881Z,56.69
2022-09-24T13:16:51.909Z,56.74
2022-09-24T13:19:34.309Z,57.47
2022-09-24T13:22:01.918Z,57.51
2022-09-24T13:24:44.872Z,56.88
2022-09-24T13:27:35.302Z,57.44
2022-09-24T13:30:18.427Z,56.83
2022-09-24T13:32:58.872Z,57.22
2022-09-24T13:35:50.261Z,56.66
2022-09-24T13:38:23.884Z,56.68
2022-09-24T13:40:57.045Z,56.99
2022-09-24T13:43:40.855Z,56.77
2022-09-24T13:46:14.823Z,56.47
2022-09-24T13:48:49.175Z,56.83
2022-09-24T13:51:18.130Z,56.87
2022-09-24T13:53:55.881Z,55.02
2022-09-24T13:56:23.329Z,54.93
2022-09-24T13:58:50.127Z,55.50
2022-09-24T14:01:26.970Z,55.37
2022-09-24T14:03:57.056Z,55.41
2022-09-24T14:06:37.075Z,55.60
2022-09-24T14:09:25.315Z,55.22
2022-09-24T14:11:54.643Z,55.50
2022-09-24T14:14:23.280Z,55.81
2022-09-24T14:16:50.594Z,56.14
2022-09-24T14:19:17.192Z,56.07
2022-09-24T14:21:51.407Z,56.01
2022-09-24T14:24:27.368Z,56.01
2022-09-24T14:26:58.877Z,56.59
2022-09-24T14:29:48.069Z,55.95
2022-09-24T14:32:33.288Z,56.88
2022-09-24T14:35:05.653Z,56.41
2022-09-24T14:37:45.796Z,56.23
2022-09-24T14:40:17.940Z,57.11
2022-09-24T14:42:48.530Z,56.92
2022-09-24T14:45:23.840Z,56.46
2022-09-24T14:48:05.090Z,56.71
2022-09-24T14:50:41.077Z,56.94
2022-09-24T14:53:21.194Z,57.22
2022-09-24T14:55:48.267Z,57.81
2022-09-24T14:58:26.652Z,57.50
2022-09-24T15:01:17.499Z,57.52
2022-09-24T15:03:51.571Z,57.90
2022-09-24T15:06:20.357Z,58.06
2022-09-24T15:08:59.210Z,57.64
2022-09-24T15:11:27.516Z,57.63
2022-09-24T15:14:01.610Z,58.00
2022-09-24T15:16:33.631Z,58.07
2022-09-24T15:19:21.103Z,58.27
2022-09-24T15:21:49.495Z,58.45
2022-09-24T15:24:17.553Z,58.48
2022-09-24T15:26:45.520Z,58.53
2022-09-24T15:29:20.826Z,58.94
2022-09-24T15:31:47.615Z,59.14
2022-09-24T15:34:19.060Z,59.22
2022-09-24T15:36:53.533Z,59.47
2022-09-24T15:39:20.102Z,59.62
2022-09-24T15:41:46.700Z,59.55
2022-09-24T15:44:22.339Z,60.14
2022-09-24T15:46:49.933Z,59.92
2022-09-24T15:49:17.876Z,60.21
2022-09-24T15:51:44.420Z,60.13
2022-09-24T15:54:10.964Z,60.31
2022-09-24T15:56:40.003Z,60.74
2022-09-24T15:59:13.832Z,61.08
2022-09-24T16:01:41.219Z,60.75
2022-09-24T16:04:11.325Z,60.99
2022-09-24T16:06:38.595Z,61.17
2022-09-24T16:09:05.197Z,61.40
2022-09-24T16:11:31.963Z,61.42
2022-09-24T16:13:58.536Z,61.42
2022-09-24T16:16:25.214Z,61.87
2022-09-24T16:18:51.957Z,62.01
2022-09-24T16:21:18.543Z,61.98
2022-09-24T16:23:45.079Z,62.17
2022-09-24T16:26:11.725Z,62.00
2022-09-24T16:28:38.234Z,62.33
2022-09-24T16:31:06.407Z,62.14
2022-09-24T16:33:38.009Z,62.90
2022-09-24T16:36:06.447Z,62.52
2022-09-24T16:38:37.757Z,63.17
2022-09-24T16:41:05.943Z,62.57
2022-09-24T16:43:33.092Z,62.26
2022-09-24T16:46:08.487Z,63.03
2022-09-24T16:48:35.220Z,62.57
2022-09-24T16:51:09.530Z,63.45
2022-09-24T16:53:36.746Z,62.89
2022-09-24T16:56:21.085Z,63.75
2022-09-24T16:58:47.576Z,63.30
2022-09-24T17:01:16.533Z,63.40
2022-09-24T17:03:43.767Z,63.54
2022-09-24T17:06:22.011Z,64.19
2022-09-24T17:08:48.761Z,63.44
2022-09-24T17:11:16.021Z,63.28
2022-09-24T17:16:40.932Z,63.59
2022-09-24T17:19:11.419Z,63.72
2022-09-24T17:21:40.598Z,63.92
2022-09-24T17:24:07.631Z,64.09
2022-09-24T17:26:34.176Z,63.96
2022-09-24T17:29:00.742Z,63.90
2022-09-24T17:31:27.926Z,64.06
2022-09-24T17:33:59.339Z,64.69
2022-09-24T17:36:27.485Z,64.44
2022-09-24T17:38:53.923Z,64.54
2022-09-24T17:41:20.818Z,64.13
2022-09-24T17:43:47.372Z,64.20
2022-09-24T17:46:16.983Z,64.45
2022-09-24T17:48:46.253Z,64.24
2022-09-24T17:51:24.282Z,64.41
2022-09-24T17:53:52.804Z,64.06
2022-09-24T17:56:21.221Z,64.23
2022-09-24T17:58:47.914Z,64.21
2022-09-24T18:01:18.406Z,64.87
2022-09-24T18:03:45.807Z,64.52
2022-09-24T18:06:13.975Z,64.84
2022-09-24T18:08:45.139Z,65.34
2022-09-24T18:11:13.110Z,64.53
2022-09-24T18:13:40.111Z,64.64
2022-09-24T18:16:12.050Z,65.06
2022-09-24T18:18:39.262Z,64.79
2022-09-24T18:21:08.883Z,65.05
2022-09-24T18:23:35.520Z,64.99
2022-09-24T18:26:13.098Z,66.30
2022-09-24T18:28:41.170Z,65.29
2022-09-24T18:31:09.859Z,65.42
2022-09-24T18:33:38.887Z,65.49
2022-09-24T18:36:08.487Z,65.35
2022-09-24T18:38:35.624Z,65.13
2022-09-24T18:41:14.463Z,66.12
2022-09-24T18:43:42.137Z,65.47
2022-09-24T18:46:11.499Z,65.48
2022-09-24T18:48:39.386Z,65.47
2022-09-24T18:51:07.597Z,65.78
2022-09-24T18:53:34.401Z,66.18
2022-09-24T18:56:06.250Z,66.08
2022-09-24T18:58:33.333Z,65.55
2022-09-24T19:01:01.281Z,65.84
2022-09-24T19:03:29.062Z,65.79
2022-09-24T19:06:01.782Z,66.26
2022-09-24T19:08:28.736Z,65.46
2022-09-24T19:10:55.283Z,65.46
2022-09-24T19:13:26.138Z,65.57
2022-09-24T19:15:53.098Z,65.64
2022-09-24T19:18:19.645Z,65.75
2022-09-24T19:20:47.416Z,65.98
2022-09-24T19:23:14.473Z,65.76
2022-09-24T19:25:41.979Z,65.91
2022-09-24T19:28:11.402Z,66.17
2022-09-24T19:30:43.430Z,65.89
2022-09-24T19:33:11.653Z,65.87
2022-09-24T19:35:38.062Z,66.39
2022-09-24T19:38:04.724Z,66.04
2022-09-24T19:40:31.314Z,66.15
2022-09-24T19:42:57.869Z,65.95
2022-09-24T19:45:24.354Z,66.15
2022-09-24T19:47:50.902Z,66.28
2022-09-24T19:50:17.942Z,66.44
2022-09-24T19:52:44.728Z,66.30
2022-09-24T19:55:11.292Z,66.39
2022-09-24T19:57:37.761Z,66.64
2022-09-24T20:00:04.749Z,66.41
2022-09-24T20:02:31.464Z,66.31
2022-09-24T20:04:58.084Z,66.37
2022-09-24T20:07:24.555Z,66.19
2022-09-24T20:09:51.080Z,66.14
2022-09-24T20:12:17.547Z,66.30
2022-09-24T20:14:44.023Z,66.09
2022-09-24T20:17:11.046Z,66.15
2022-09-24T20:19:37.976Z,66.00
2022-09-24T20:22:06.643Z,65.94
2022-09-24T20:24:38.022Z,66.07
2022-09-24T20:27:04.515Z,66.38
2022-09-24T20:29:31.049Z,66.58
2022-09-24T20:31:57.526Z,66.60
2022-09-24T20:34:30.520Z,67.13
2022-09-24T20:36:57.058Z,66.59
2022-09-24T20:39:23.557Z,66.86
2022-09-24T20:41:50.200Z,66.62
2022-09-24T20:44:16.964Z,66.50
2022-09-24T20:46:43.709Z,66.56
2022-09-24T20:49:17.373Z,67.20
2022-09-24T20:51:44.009Z,66.78
2022-09-24T20:54:10.564Z,66.88
2022-09-24T20:56:37.192Z,66.65
2022-09-24T20:59:03.787Z,66.76
2022-09-24T21:01:30.390Z,67.01
2022-09-24T21:03:56.929Z,67.00
2022-09-24T21:06:23.708Z,67.01
2022-09-24T21:08:51.216Z,67.01
2022-09-24T21:11:23.075Z,67.07
2022-09-24T21:13:52.048Z,66.97
2022-09-24T21:16:21.318Z,67.01
2022-09-24T21:18:49.325Z,67.07
2022-09-24T21:21:17.155Z,67.13
2022-09-24T21:23:45.228Z,67.19
2022-09-24T21:26:13.136Z,67.41
2022-09-24T21:28:40.540Z,66.81
2022-09-24T21:31:07.552Z,66.94
2022-09-24T21:33:34.797Z,67.12
2022-09-24T21:36:06.605Z,67.47
2022-09-24T21:38:33.851Z,67.11
2022-09-24T21:41:00.473Z,67.14
2022-09-24T21:43:32.354Z,67.02
2022-09-24T21:46:03.813Z,66.90
2022-09-24T21:48:30.681Z,67.06
2022-09-24T21:51:18.162Z,67.45
2022-09-24T21:53:45.016Z,67.04
2022-09-24T21:56:11.549Z,67.00
2022-09-24T21:58:38.152Z,67.02
2022-09-24T22:01:15.472Z,67.20
2022-09-24T22:03:42.107Z,67.06
2022-09-24T22:06:08.642Z,66.82
2022-09-24T22:08:35.201Z,66.93
2022-09-24T22:11:04.935Z,66.83
2022-09-24T22:13:32.279Z,66.73
2022-09-24T22:15:59.811Z,67.07
2022-09-24T22:18:27.687Z,66.88
2022-09-24T22:20:58.637Z,66.93
2022-09-24T22:23:25.197Z,66.52
2022-09-24T22:25:56.323Z,66.83
2022-09-24T22:28:23.987Z,66.76
2022-09-24T22:30:58.596Z,67.05
2022-09-24T22:33:26.043Z,66.76
2022-09-24T22:35:55.738Z,67.08
2022-09-24T22:38:22.310Z,66.52
2022-09-24T22:40:49.615Z,66.67
2022-09-24T22:43:16.121Z,66.84
2022-09-24T22:45:42.726Z,66.79
2022-09-24T22:48:10.181Z,66.55
2022-09-24T22:50:36.814Z,66.77
2022-09-24T22:53:03.460Z,66.32
2022-09-24T22:55:30.138Z,66.12
2022-09-24T22:57:56.745Z,66.05
2022-09-24T23:00:23.395Z,66.02
2022-09-24T23:02:49.907Z,65.66
2022-09-24T23:05:16.569Z,65.56
2022-09-24T23:07:43.171Z,65.76
2022-09-24T23:10:09.896Z,65.71
2022-09-24T23:12:36.385Z,65.88
2022-09-24T23:15:03.390Z,65.79
2022-09-24T23:17:29.889Z,65.72
2022-09-24T23:19:56.564Z,66.01
2022-09-24T23:22:23.228Z,65.84
2022-09-24T23:24:50.105Z,65.88
2022-09-24T23:27:18.178Z,65.95
2022-09-24T23:29:44.901Z,66.83
2022-09-24T23:32:12.599Z,65.67
2022-09-24T23:34:39.130Z,65.75
2022-09-24T23:37:05.788Z,65.70
2022-09-24T23:39:32.796Z,65.84
2022-09-24T23:41:59.795Z,65.84
2022-09-24T23:44:26.285Z,65.76
2022-09-24T23:46:52.805Z,65.79
2022-09-24T23:49:19.380Z,65.83
2022-09-24T23:51:45.854Z,65.85
2022-09-24T23:54:12.484Z,65.84
2022-09-24T23:56:38.983Z,65.84
2022-09-24T23:59:05.568Z,65.90
